aviador You're here:

SBFL Decoded Metar

FLORIANOPOLIS in BRAZIL
Report Time2018-01-19 19:00:00
UTC Time2018-01-19 19:18:30
Flight Rules vfr VFR
Wind160° at 11 kt
W.Decomp.*RWY 21: 9.4 kt HW 5.7 kt LCW
RWY 14: 8.5 kt HW 6.9 kt RCW
W.Rank160° ranks 13
Current wind is above 160° avg. (8.0)
Visibility9999 m
Phenomena:N/A
Clouds:Scattered 030 Hf
Scattered 040 Hf
Broken 100 Hf
Expected CloudBase > 2,000 ft AGL from Temp-Dew spread
Ceiling10,000 ft
Temp26°C (ISA +11)
Dew Point21°C (74% RH)
QNH1014 hPa
Density Alt1,585 ft
Elevation16 ft
Report Wrong Elevation
Raw Report
SBFL 191900Z 16011KT 9999 SCT030 SCT040 BKN100 26/21 Q1014=

Extra information for SBFL:More info

Metar Taf Metar & Taf Last 4 Metars F.Rules Stats Wind Profile Meteogram Temp Stats Airport Information Weather charts Add Link Nearby VenuesMetar ALERT Operation Metar Decoded Social comments